Time;durP1;ratioP1;P1;durP2;ratioP2;P2;SDS_P1;SDS_P2;PMS_P1;PMS_P2;Temp;Humidity;BMP_temperature;BMP_pressure;BME280_temperature;BME280_humidity;BME280_pressure;Samples;Min_cycle;Max_cycle;Signal;HPM_P1;HPM_P2
2022/05/09 00:00:20;;;;;;;7.05;2.00;;;;;;;6.54;86.38;102903.25;5023861;28;20029;-75
2022/05/09 00:02:46;;;;;;;6.80;1.73;;;;;;;6.55;86.75;102904.97;5019179;28;20516;-75
2022/05/09 00:05:15;;;;;;;11.35;2.35;;;;;;;6.51;nan;102907.78;5025119;28;20106;-75
2022/05/09 00:07:42;;;;;;;7.32;2.08;;;;;;;6.41;89.05;102902.16;5015514;28;20026;-75
2022/05/09 00:10:09;;;;;;;5.05;2.40;;;;;;;6.21;90.03;102874.25;5017352;28;20481;-77
2022/05/09 00:12:34;;;;;;;10.30;1.80;;;;;;;6.36;89.83;102904.16;5017839;28;20041;-77
2022/05/09 00:15:00;;;;;;;8.57;2.45;;;;;;;6.30;91.33;102904.44;5015519;28;20026;-76
2022/05/09 00:17:25;;;;;;;8.38;2.58;;;;;;;6.23;92.02;102895.13;5023821;28;20061;-77
2022/05/09 00:19:51;;;;;;;8.52;2.35;;;;;;;6.22;92.78;102896.06;5028549;28;20176;-77
2022/05/09 00:22:16;;;;;;;7.82;1.83;;;;;;;6.12;91.54;102874.69;5010581;28;20031;-77
2022/05/09 00:24:41;;;;;;;7.90;2.25;;;;;;;6.24;89.97;102899.47;4997766;28;20505;-78
2022/05/09 00:27:07;;;;;;;7.13;2.15;;;;;;;6.26;87.93;102892.38;5015681;28;20029;-76
2022/05/09 00:29:32;;;;;;;6.85;1.90;;;;;;;6.28;87.08;102901.03;5027393;28;20087;-76
2022/05/09 00:31:58;;;;;;;4.45;1.98;;;;;;;6.28;86.80;102895.78;5020282;28;20026;-76
2022/05/09 00:34:24;;;;;;;7.07;1.50;;;;;;;6.30;86.89;102886.91;5019536;28;20040;-77
2022/05/09 00:36:52;;;;;;;10.43;2.17;;;;;;;6.28;85.67;102887.91;5015330;28;20029;-77
2022/05/09 00:39:18;;;;;;;4.75;1.95;;;;;;;6.13;84.95;102874.59;5026574;28;20101;-77
2022/05/09 00:41:44;;;;;;;7.10;2.47;;;;;;;6.11;85.21;102871.19;5012015;28;20368;-77
2022/05/09 00:44:14;;;;;;;9.32;1.90;;;;;;;6.09;85.82;102875.66;5010211;28;20401;-78
2022/05/09 00:46:42;;;;;;;3.90;2.08;;;;;;;6.17;85.13;102888.41;5027934;28;20017;-75
2022/05/09 00:49:34;;;;;;;8.82;2.10;;;;;;;6.19;84.99;102891.81;5024987;28;20021;-77
2022/05/09 00:52:12;;;;;;;4.78;1.77;;;;;;;6.14;85.00;102881.53;5030592;28;20048;-77
2022/05/09 00:55:07;;;;;;;8.73;2.05;;;;;;;6.11;84.43;102876.41;5021389;28;20025;-76
2022/05/09 00:57:38;;;;;;;3.95;1.83;;;;;;;6.13;83.57;102881.59;5020257;28;20057;-77
2022/05/09 01:00:14;;;;;;;3.72;1.70;;;;;;;6.10;84.16;102882.59;5020668;28;20481;-77
2022/05/09 01:02:43;;;;;;;10.75;2.10;;;;;;;6.09;85.70;102875.66;5020374;28;20657;-76
2022/05/09 01:05:12;;;;;;;7.28;2.50;;;;;;;6.08;87.92;102883.59;5013125;28;20026;-76
2022/05/09 01:07:38;;;;;;;7.78;2.13;;;;;;;6.02;86.56;102882.09;5008705;28;20037;-76
2022/05/09 01:10:03;;;;;;;5.25;1.67;;;;;;;5.97;85.64;102878.84;5023445;28;20030;-76
2022/05/09 01:12:32;;;;;;;9.60;1.75;;;;;;;6.00;85.58;102886.56;4997418;28;20034;-77
2022/05/09 01:15:06;;;;;;;5.75;1.95;;;;;;;5.97;84.13;102886.72;5017458;28;20527;-77
2022/05/09 01:17:32;;;;;;;8.23;2.28;;;;;;;5.93;84.24;102879.88;5024964;28;20018;-77
2022/05/09 01:20:00;;;;;;;5.25;1.92;;;;;;;5.89;83.35;102878.31;5011650;28;20040;-77
2022/05/09 01:22:29;;;;;;;5.07;2.13;;;;;;;5.91;82.66;102886.94;5021831;28;20029;-75
2022/05/09 01:24:57;;;;;;;8.00;2.20;;;;;;;5.78;83.00;102869.16;5029451;28;20022;-77
2022/05/09 01:27:23;;;;;;;8.18;1.83;;;;;;;5.88;82.68;102880.09;5012043;28;20693;-77
2022/05/09 01:30:02;;;;;;;5.25;1.90;;;;;;;5.86;83.27;102874.06;5025917;28;20030;-76
2022/05/09 01:32:51;;;;;;;5.47;2.15;;;;;;;5.74;82.77;102864.13;5015119;28;20022;-76
2022/05/09 01:35:22;;;;;;;5.78;1.80;;;;;;;5.81;83.46;102873.41;4999838;28;20095;-78
2022/05/09 01:37:52;;;;;;;6.07;1.98;;;;;;;5.82;84.07;102871.66;5019070;28;20389;-77
2022/05/09 01:40:17;;;;;;;3.60;2.00;;;;;;;5.70;84.08;102857.31;5014690;28;20014;-76
2022/05/09 01:42:43;;;;;;;17.48;3.47;;;;;;;5.68;83.84;102864.41;5011364;28;20037;-76
2022/05/09 01:45:11;;;;;;;5.43;1.90;;;;;;;5.70;83.25;102871.25;5026004;28;20381;-76
2022/05/09 01:50:23;;;;;;;7.93;2.47;;;;;;;5.64;83.50;102873.31;5007620;28;20128;-76
2022/05/09 01:52:49;;;;;;;6.00;1.55;;;;;;;5.61;83.89;102874.28;5020556;28;20600;-77
2022/05/09 01:55:14;;;;;;;4.20;1.65;;;;;;;5.41;82.88;102849.00;5008397;28;20528;-76
2022/05/09 01:57:40;;;;;;;8.32;2.17;;;;;;;5.54;83.19;102867.63;5026402;28;20021;-76
2022/05/09 02:00:08;;;;;;;5.53;2.05;;;;;;;5.52;83.19;102869.47;5026708;28;21199;-76
2022/05/09 02:02:34;;;;;;;3.58;1.67;;;;;;;5.41;83.81;102861.25;5015696;28;20066;-76
2022/05/09 02:04:59;;;;;;;4.60;1.63;;;;;;;5.43;83.04;102875.13;5012826;28;20033;-76
2022/05/09 02:07:26;;;;;;;6.80;2.05;;;;;;;5.35;83.02;102863.19;5016072;28;20040;-76
2022/05/09 02:09:52;;;;;;;4.18;1.45;;;;;;;5.33;82.94;102865.06;5045399;28;20059;-77
2022/05/09 02:12:19;;;;;;;5.97;1.63;;;;;;;5.39;83.60;102882.25;5021040;28;20489;-76
2022/05/09 02:14:45;;;;;;;3.83;2.10;;;;;;;5.38;82.62;102874.44;5028282;28;20029;-76
2022/05/09 02:17:11;;;;;;;6.63;2.20;;;;;;;5.27;83.06;102869.66;5016574;28;20018;-78
2022/05/09 02:19:38;;;;;;;4.28;1.90;;;;;;;5.31;82.30;102872.13;5030625;28;20040;-77
2022/05/09 02:22:04;;;;;;;4.68;1.83;;;;;;;5.31;82.56;102861.66;5022608;28;20030;-77
2022/05/09 02:24:30;;;;;;;4.32;1.75;;;;;;;5.27;83.69;102873.16;5024953;28;20111;-77
2022/05/09 02:26:57;;;;;;;6.03;2.13;;;;;;;5.26;84.02;102874.06;5022909;28;20496;-79
2022/05/09 02:29:22;;;;;;;7.93;2.15;;;;;;;5.23;83.94;102874.22;5024584;28;20018;-76
2022/05/09 02:31:48;;;;;;;2.88;1.60;;;;;;;5.20;84.25;102874.31;5025496;28;20030;-77
2022/05/09 02:34:14;;;;;;;9.25;2.13;;;;;;;4.98;83.68;102837.75;5022203;28;20083;-78
2022/05/09 02:36:39;;;;;;;5.03;1.83;;;;;;;5.12;83.40;102872.03;5005079;28;20124;-78
2022/05/09 02:39:05;;;;;;;8.75;1.90;;;;;;;5.01;82.89;102862.91;5017716;28;20056;-77
2022/05/09 02:41:30;;;;;;;8.13;2.60;;;;;;;4.90;82.92;102839.81;5013555;28;20113;-77
2022/05/09 02:43:56;;;;;;;9.48;2.88;;;;;;;5.02;83.80;102869.88;4997391;28;20033;-77
2022/05/09 02:46:22;;;;;;;8.77;1.80;;;;;;;4.98;84.68;102870.91;5015304;28;20482;-76
2022/05/09 02:48:48;;;;;;;5.50;1.92;;;;;;;4.92;84.59;102857.19;5023253;28;20466;-76
2022/05/09 02:51:14;;;;;;;6.32;2.38;;;;;;;4.94;83.59;102860.59;5010109;28;20076;-77
2022/05/09 02:53:40;;;;;;;5.88;2.40;;;;;;;4.89;83.57;102854.66;5013506;28;20099;-77
2022/05/09 02:56:06;;;;;;;8.55;2.83;;;;;;;4.77;84.51;102836.00;5012334;28;20054;-78
2022/05/09 02:58:32;;;;;;;5.75;2.15;;;;;;;4.78;84.44;102835.97;5015355;28;20447;-77
2022/05/09 03:00:58;;;;;;;5.20;1.73;;;;;;;4.75;84.94;102833.47;5022882;28;20037;-77
2022/05/09 03:06:07;;;;;;;7.28;1.85;;;;;;;4.67;88.79;102849.47;5027219;28;20076;-77
2022/05/09 03:08:33;;;;;;;4.97;1.90;;;;;;;4.67;89.17;102848.63;5026080;28;20097;-77
2022/05/09 03:10:58;;;;;;;4.80;1.65;;;;;;;4.58;88.96;102828.09;5012059;28;20033;-78
2022/05/09 03:13:24;;;;;;;3.85;1.55;;;;;;;4.58;87.85;102823.72;5020870;28;20034;-78
2022/05/09 03:15:50;;;;;;;4.88;2.15;;;;;;;4.69;88.48;102833.72;5006587;28;20397;-76
2022/05/09 03:18:21;;;;;;;7.63;1.92;;;;;;;4.70;89.02;102827.56;5016385;28;20042;-77
2022/05/09 03:20:46;;;;;;;5.00;2.13;;;;;;;4.68;90.94;102838.13;5016385;28;20076;-77
2022/05/09 03:23:12;;;;;;;2.60;1.73;;;;;;;4.69;90.95;102837.19;4999749;28;20038;-77
2022/05/09 03:25:39;;;;;;;4.53;1.40;;;;;;;4.68;90.48;102826.78;5014856;28;20064;-77
2022/05/09 03:28:06;;;;;;;5.18;1.55;;;;;;;4.63;89.97;102813.91;5013282;28;20411;-76
2022/05/09 03:30:33;;;;;;;2.90;1.77;;;;;;;4.71;88.96;102831.91;5014753;28;20138;-78
2022/05/09 03:32:58;;;;;;;3.85;1.95;;;;;;;4.69;88.77;102826.72;5018925;28;20037;-77
2022/05/09 03:35:24;;;;;;;2.97;1.40;;;;;;;4.68;88.06;102829.41;5027860;28;20473;-78
2022/05/09 03:37:49;;;;;;;5.32;1.83;;;;;;;4.68;86.80;102825.03;5023211;28;20398;-77
2022/05/09 03:40:15;;;;;;;4.68;1.50;;;;;;;4.56;85.95;102806.38;5024894;28;20483;-77
2022/05/09 03:42:41;;;;;;;3.50;1.60;;;;;;;4.62;85.37;102811.38;5016079;28;20037;-77
2022/05/09 03:45:07;;;;;;;6.78;2.10;;;;;;;4.66;85.79;102811.19;5020156;28;20030;-77
2022/05/09 03:47:32;;;;;;;4.40;1.75;;;;;;;4.53;86.08;102792.50;5026721;28;20034;-78
2022/05/09 03:49:58;;;;;;;3.80;1.73;;;;;;;4.63;87.24;102808.66;5003006;28;20036;-78
2022/05/09 03:52:24;;;;;;;5.70;1.58;;;;;;;4.53;88.34;102784.66;5021178;28;20506;-77
2022/05/09 03:54:49;;;;;;;10.50;2.63;;;;;;;4.56;89.63;102795.91;5028111;28;20033;-77
2022/05/09 03:57:15;;;;;;;12.77;2.35;;;;;;;4.46;91.57;102785.81;5019620;28;20084;-78
2022/05/09 03:59:41;;;;;;;5.30;2.08;;;;;;;4.50;92.17;102790.00;5022127;28;20120;-78
2022/05/09 04:02:06;;;;;;;5.85;2.33;;;;;;;4.47;92.36;102786.69;4998672;28;20027;-78
2022/05/09 04:04:31;;;;;;;2.63;1.90;;;;;;;4.59;91.46;102787.94;5027282;28;20029;-77
2022/05/09 04:06:57;;;;;;;7.90;3.15;;;;;;;4.66;91.24;102794.59;5022721;28;20041;-77
2022/05/09 04:09:22;;;;;;;3.28;1.90;;;;;;;4.70;91.64;102801.41;5025679;28;20499;-78
2022/05/09 04:11:50;;;;;;;10.68;2.53;;;;;;;4.73;90.77;102796.06;5020450;28;20378;-77
2022/05/09 04:16:49;;;;;;;7.28;2.50;;;;;;;4.78;90.49;102794.09;5018373;28;20030;-77
2022/05/09 04:17:03;;;;;;;4.25;1.95;;;;;;;4.67;89.00;102771.00;5015387;28;20044;-78
2022/05/09 04:19:28;;;;;;;5.32;1.90;;;;;;;4.82;88.34;102797.44;5020566;28;20021;-76
2022/05/09 04:21:54;;;;;;;9.18;2.80;;;;;;;4.82;86.36;102795.69;4997231;28;20042;-78
2022/05/09 04:24:20;;;;;;;5.93;2.22;;;;;;;4.82;84.52;102789.59;5011989;28;20409;-77
2022/05/09 04:26:45;;;;;;;7.18;1.80;;;;;;;4.68;83.72;102769.25;5020367;28;20049;-78
2022/05/09 04:29:11;;;;;;;3.65;1.80;;;;;;;4.89;83.39;102794.50;5018132;28;20029;-77
2022/05/09 04:31:36;;;;;;;8.10;2.17;;;;;;;4.93;83.01;102798.69;5019718;28;20060;-77
2022/05/09 04:34:01;;;;;;;3.58;2.20;;;;;;;4.99;83.55;102801.94;4995595;28;20065;-77
2022/05/09 04:36:28;;;;;;;5.80;2.53;;;;;;;5.03;83.44;102798.28;5021830;28;20611;-76
2022/05/09 04:38:53;;;;;;;7.63;1.90;;;;;;;5.04;83.25;102790.38;5024713;28;20037;-78
2022/05/09 04:41:20;;;;;;;7.75;2.67;;;;;;;4.97;83.49;102761.94;5020755;28;20044;-78
2022/05/09 04:43:46;;;;;;;5.70;2.22;;;;;;;5.17;83.10;102795.94;5015906;28;20030;-78
2022/05/09 04:46:13;;;;;;;3.47;2.08;;;;;;;5.18;83.89;102792.38;5021126;28;20056;-79
2022/05/09 04:48:43;;;;;;;3.22;2.10;;;;;;;5.26;83.04;102795.53;5002155;28;20026;-78
2022/05/09 04:51:10;;;;;;;2.55;1.60;;;;;;;5.29;83.68;102790.16;5019586;28;20049;-78
2022/05/09 04:53:35;;;;;;;2.88;1.83;;;;;;;5.32;84.68;102784.78;5020528;28;20495;-79
2022/05/09 04:56:01;;;;;;;5.22;2.15;;;;;;;5.41;83.87;102788.75;5020736;28;20045;-78
2022/05/09 04:58:27;;;;;;;6.05;2.53;;;;;;;5.35;83.96;102768.91;5018842;28;20030;-78
2022/05/09 05:00:52;;;;;;;5.20;1.95;;;;;;;5.51;84.43;102781.34;5013205;28;20048;-78
2022/05/09 05:03:18;;;;;;;6.45;2.72;;;;;;;5.54;84.67;102773.34;5019676;28;20504;-79
2022/05/09 05:05:44;;;;;;;3.30;1.80;;;;;;;5.70;84.14;102784.81;5021092;28;20029;-78
2022/05/09 05:08:13;;;;;;;4.18;2.35;;;;;;;5.82;84.52;102790.44;5016514;28;20062;-74
2022/05/09 05:10:39;;;;;;;12.82;4.70;;;;;;;5.84;85.33;102786.81;5017997;28;20025;-75
2022/05/09 05:13:05;;;;;;;5.47;2.60;;;;;;;6.04;85.77;102793.75;5024467;28;20394;-76
2022/05/09 05:15:31;;;;;;;11.52;3.00;;;;;;;6.17;86.29;102794.88;5014905;28;20025;-74
2022/05/09 05:17:58;;;;;;;5.97;2.25;;;;;;;6.28;88.73;102790.88;5017786;28;20041;-76
2022/05/09 05:20:24;;;;;;;11.23;4.10;;;;;;;6.26;87.52;102771.75;5017088;28;20117;-76
2022/05/09 05:22:50;;;;;;;8.48;3.20;;;;;;;6.51;88.14;102788.00;5021428;28;20034;-76
2022/05/09 05:25:19;;;;;;;12.13;3.88;;;;;;;6.65;94.07;102794.31;5021956;28;20042;-75
2022/05/09 05:27:46;;;;;;;13.52;4.45;;;;;;;6.70;97.42;102787.06;5012568;28;20032;-75
2022/05/09 05:30:13;;;;;;;11.65;4.45;;;;;;;6.76;99.71;102786.75;5004005;28;20476;-76
2022/05/09 05:32:41;;;;;;;11.93;5.28;;;;;;;6.66;100.00;102775.88;5015190;28;20498;-75
2022/05/09 05:35:12;;;;;;;14.85;4.65;;;;;;;6.57;100.00;102764.06;5009696;28;20025;-75
2022/05/09 05:37:38;;;;;;;13.80;4.65;;;;;;;6.78;100.00;102796.25;5031071;28;20034;-76
2022/05/09 05:40:05;;;;;;;10.95;4.63;;;;;;;6.76;100.00;102779.72;5012584;28;20755;-76
2022/05/09 05:42:31;;;;;;;11.65;4.45;;;;;;;6.92;100.00;102792.91;5007207;28;20629;-76
2022/05/09 05:44:57;;;;;;;9.02;4.30;;;;;;;7.02;100.00;102788.06;4998358;28;20038;-76
2022/05/09 05:47:23;;;;;;;9.77;4.40;;;;;;;7.06;100.00;102775.63;5009784;28;20030;-76
2022/05/09 05:49:49;;;;;;;18.52;4.57;;;;;;;7.22;100.00;102787.84;5014353;28;20036;-76
2022/05/09 05:52:15;;;;;;;9.88;4.68;;;;;;;7.34;100.00;102788.16;5017555;28;20474;-76
2022/05/09 05:54:43;;;;;;;18.00;5.30;;;;;;;7.51;100.00;102785.47;5015763;28;20057;-76
2022/05/09 05:57:24;;;;;;;10.45;4.13;;;;;;;7.67;100.00;102782.88;4995466;28;20033;-77
2022/05/09 05:59:52;;;;;;;15.80;4.95;;;;;;;7.93;100.00;102781.44;5017865;28;20041;-76
2022/05/09 06:02:18;;;;;;;12.55;4.25;;;;;;;8.16;100.00;102782.75;5016786;28;20109;-74
2022/05/09 06:04:44;;;;;;;11.07;3.78;;;;;;;8.28;100.00;102780.38;5012579;28;20124;-74
2022/05/09 06:07:12;;;;;;;10.63;4.13;;;;;;;8.36;100.00;102775.50;5014037;28;20037;-75
2022/05/09 06:09:40;;;;;;;10.15;3.88;;;;;;;8.34;100.00;102751.06;5012619;28;20065;-76
2022/05/09 06:12:07;;;;;;;13.02;4.03;;;;;;;8.63;100.00;102779.22;5019036;28;20028;-75
2022/05/09 06:14:33;;;;;;;15.40;4.90;;;;;;;8.87;100.00;102773.44;5017170;28;20045;-75
2022/05/09 06:16:58;;;;;;;11.50;4.20;;;;;;;9.11;100.00;102770.28;5017521;28;20030;-76
2022/05/09 06:19:24;;;;;;;13.55;4.53;;;;;;;9.17;98.00;102751.47;4998765;28;20030;-76
2022/05/09 06:21:50;;;;;;;10.63;3.53;;;;;;;9.39;97.57;102759.72;4994490;28;20505;-76
2022/05/09 06:24:16;;;;;;;12.90;3.97;;;;;;;9.72;96.37;102761.19;5019113;28;20444;-76
2022/05/09 06:26:42;;;;;;;11.48;4.53;;;;;;;9.96;94.88;102763.19;5016912;28;20026;-76
2022/05/09 06:29:08;;;;;;;15.05;3.42;;;;;;;9.96;93.67;102742.09;5016896;28;20029;-76
2022/05/09 06:31:35;;;;;;;12.52;3.47;;;;;;;10.25;93.27;102756.84;5021332;28;20029;-76
2022/05/09 06:34:01;;;;;;;9.10;4.13;;;;;;;10.42;92.37;102760.22;5019178;28;20029;-75
2022/05/09 06:36:27;;;;;;;13.45;5.07;;;;;;;10.45;90.62;102750.31;5021726;28;20034;-76
2022/05/09 06:38:52;;;;;;;10.82;3.42;;;;;;;10.77;89.82;102755.19;5005042;28;20034;-77
2022/05/09 06:41:18;;;;;;;13.75;3.97;;;;;;;10.98;87.56;102741.47;5016479;28;20116;-76
2022/05/09 06:43:44;;;;;;;12.57;3.58;;;;;;;11.42;87.53;102733.06;5010633;28;20541;-76
2022/05/09 06:46:10;;;;;;;11.90;3.58;;;;;;;11.87;84.99;102736.00;5017104;28;20405;-74
2022/05/09 06:48:35;;;;;;;16.15;4.45;;;;;;;12.28;83.37;102755.06;4999402;28;20037;-76
2022/05/09 06:51:01;;;;;;;11.95;3.83;;;;;;;12.61;81.06;102761.44;5015947;28;20029;-76
2022/05/09 06:53:26;;;;;;;13.68;3.40;;;;;;;12.88;79.41;102753.19;5023681;28;20459;-76
2022/05/09 06:55:52;;;;;;;11.38;3.53;;;;;;;13.33;77.94;102753.25;5017419;28;20474;-76
2022/05/09 06:58:23;;;;;;;12.25;4.32;;;;;;;13.39;76.17;102752.75;5002171;28;20038;-76
2022/05/09 07:00:49;;;;;;;14.63;3.80;;;;;;;13.86;75.50;102755.22;5019504;28;20045;-77
2022/05/09 07:03:15;;;;;;;11.20;4.38;;;;;;;14.19;74.26;102754.25;5017255;28;20120;-77
2022/05/09 07:05:44;;;;;;;12.32;4.28;;;;;;;14.21;73.11;102752.31;5019326;28;20037;-77
2022/05/09 07:08:10;;;;;;;12.93;3.53;;;;;;;14.63;72.07;102752.34;5020075;28;20116;-77
2022/05/09 07:10:36;;;;;;;11.20;3.45;;;;;;;14.54;70.31;102759.25;5017943;28;20025;-77
2022/05/09 07:13:04;;;;;;;9.10;2.72;;;;;;;14.27;70.85;102759.78;5018751;28;20557;-77
2022/05/09 07:15:30;;;;;;;9.07;3.58;;;;;;;14.24;71.28;102740.56;5019106;28;20493;-77
2022/05/09 07:17:58;;;;;;;12.02;3.88;;;;;;;14.85;70.29;102743.41;5016725;28;20037;-76
2022/05/09 07:20:27;;;;;;;7.32;2.90;;;;;;;15.51;68.65;102742.97;5018171;28;20037;-77
2022/05/09 07:22:55;;;;;;;11.05;2.92;;;;;;;15.95;65.00;102743.47;5018485;28;20034;-77
2022/05/09 07:25:23;;;;;;;9.90;3.38;;;;;;;15.57;63.82;102729.13;5035051;28;20030;-77
2022/05/09 07:27:48;;;;;;;9.05;2.85;;;;;;;15.55;63.88;102746.22;5015195;28;20047;-77
2022/05/09 07:30:17;;;;;;;11.68;2.70;;;;;;;16.09;62.70;102750.25;5017471;28;20133;-77
2022/05/09 07:32:43;;;;;;;6.97;2.45;;;;;;;16.11;61.56;102752.75;5020143;28;20389;-77
2022/05/09 07:35:12;;;;;;;6.90;2.85;;;;;;;16.51;61.20;102735.75;5018384;28;20026;-77
2022/05/09 07:37:38;;;;;;;8.57;2.97;;;;;;;17.18;60.39;102736.53;5019105;28;20477;-77
2022/05/09 07:40:05;;;;;;;13.90;3.70;;;;;;;17.30;58.97;102754.03;5017762;28;20065;-77
2022/05/09 07:42:31;;;;;;;10.18;3.22;;;;;;;17.37;58.30;102755.13;5017682;28;20033;-77
2022/05/09 07:44:57;;;;;;;9.45;3.53;;;;;;;17.35;58.55;102740.25;5003049;28;20037;-77
2022/05/09 07:47:23;;;;;;;8.25;3.67;;;;;;;17.60;57.37;102750.22;5025101;28;20033;-76
2022/05/09 07:49:50;;;;;;;11.32;3.17;;;;;;;17.35;58.23;102749.09;4998491;28;20355;-76
2022/05/09 07:52:15;;;;;;;7.25;2.72;;;;;;;19.08;57.03;102748.78;5016924;28;20029;-78
2022/05/09 07:54:41;;;;;;;7.63;2.97;;;;;;;19.76;52.57;102747.03;5017306;28;20033;-78
2022/05/09 07:57:06;;;;;;;11.43;3.10;;;;;;;18.99;54.58;102745.25;5017780;28;20474;-77
2022/05/09 07:59:31;;;;;;;6.30;3.03;;;;;;;19.77;53.66;102743.34;5018278;28;20044;-77
2022/05/09 08:01:57;;;;;;;8.07;2.90;;;;;;;20.79;50.95;102743.84;5016297;28;20033;-77
2022/05/09 08:04:23;;;;;;;10.43;3.22;;;;;;;20.16;49.58;102742.72;5018790;28;20069;-77
2022/05/09 08:06:48;;;;;;;8.32;3.20;;;;;;;20.31;51.66;102749.06;5016547;28;20508;-77
2022/05/09 08:09:14;;;;;;;7.78;2.85;;;;;;;20.45;49.92;102748.41;4991965;28;20025;-78
2022/05/09 08:11:40;;;;;;;8.98;3.00;;;;;;;21.28;48.12;102755.25;4999148;28;20026;-77
2022/05/09 08:14:07;;;;;;;8.25;2.80;;;;;;;21.29;48.20;102751.53;5019229;28;20032;-76
2022/05/09 08:16:33;;;;;;;11.55;3.38;;;;;;;21.87;45.82;102753.94;5015841;28;20091;-77
2022/05/09 08:18:59;;;;;;;9.95;3.75;;;;;;;21.55;45.89;102750.44;5017500;28;20064;-77
2022/05/09 08:21:25;;;;;;;10.63;3.45;;;;;;;21.41;45.62;102751.19;5009051;28;20064;-77
2022/05/09 08:23:51;;;;;;;10.40;3.22;;;;;;;22.53;47.21;102746.19;5017341;28;20021;-77
2022/05/09 08:26:21;;;;;;;7.75;2.90;;;;;;;23.35;43.57;102734.50;5017195;28;20068;-78
2022/05/09 08:28:50;;;;;;;9.70;3.38;;;;;;;23.82;43.16;102743.94;5025695;28;20686;-78
2022/05/09 08:31:18;;;;;;;8.45;3.17;;;;;;;23.18;42.46;102731.19;5022549;28;20033;-78
2022/05/09 08:33:46;;;;;;;10.00;3.47;;;;;;;23.68;43.47;102736.72;5016675;28;20478;-79
2022/05/09 08:36:11;;;;;;;6.10;2.70;;;;;;;24.63;42.62;102730.09;5017226;28;20038;-78
2022/05/09 08:38:37;;;;;;;6.82;2.67;;;;;;;26.64;39.08;102749.31;5016174;28;20033;-78
2022/05/09 08:41:12;;;;;;;5.50;2.45;;;;;;;28.16;38.60;102743.38;5016278;28;20030;-77
2022/05/09 08:44:09;;;;;;;7.53;2.88;;;;;;;28.29;36.85;102745.13;5024567;28;20053;-77
2022/05/09 08:46:44;;;;;;;6.15;2.67;;;;;;;26.90;36.63;102742.19;5007842;28;20034;-78
2022/05/09 08:49:32;;;;;;;6.28;2.80;;;;;;;26.29;37.99;102739.78;5015919;28;20033;-77
2022/05/09 08:52:04;;;;;;;5.85;2.60;;;;;;;28.21;37.07;102738.09;5003240;28;20038;-77
2022/05/09 08:54:30;;;;;;;11.23;2.75;;;;;;;27.73;34.06;102735.13;5026734;28;20057;-77
2022/05/09 08:57:08;;;;;;;5.97;2.72;;;;;;;27.24;33.42;102732.91;5019477;28;20484;-77
2022/05/09 08:59:38;;;;;;;11.45;3.08;;;;;;;26.74;35.24;102732.66;5018503;28;20442;-77
2022/05/09 09:02:18;;;;;;;6.63;2.42;;;;;;;29.00;33.64;102727.44;5017536;28;20025;-77
2022/05/09 09:04:52;;;;;;;4.88;2.03;;;;;;;30.44;31.15;102726.53;5017689;28;20088;-76
2022/05/09 09:07:24;;;;;;;5.07;2.15;;;;;;;29.57;32.10;102729.00;5018329;28;20045;-77
2022/05/09 09:10:17;;;;;;;7.32;2.35;;;;;;;30.12;32.82;102729.59;5029013;28;20029;-77
2022/05/09 09:13:07;;;;;;;8.23;2.58;;;;;;;30.98;32.26;102723.59;5034546;28;20029;-77
2022/05/09 09:15:55;;;;;;;6.28;2.17;;;;;;;31.97;30.61;102712.31;5036481;28;20063;-77
2022/05/09 09:18:30;;;;;;;9.77;2.53;;;;;;;30.50;30.83;102725.56;5016533;28;20079;-77
2022/05/09 09:21:27;;;;;;;6.32;2.10;;;;;;;30.16;30.27;102710.91;5023796;28;20040;-78
2022/05/09 09:24:12;;;;;;;5.25;2.30;;;;;;;28.52;30.79;102701.03;5013825;28;20095;-77
2022/05/09 09:27:05;;;;;;;7.28;2.58;;;;;;;28.40;31.30;102706.38;5021755;28;20374;-78
2022/05/09 09:29:49;;;;;;;8.15;2.88;;;;;;;30.23;29.84;102687.09;5020772;28;20580;-78
2022/05/09 09:32:20;;;;;;;6.47;2.33;;;;;;;29.84;30.29;102705.78;5020675;28;20029;-77
2022/05/09 09:34:48;;;;;;;5.80;2.10;;;;;;;28.22;32.06;102696.31;5020937;28;20022;-76
2022/05/09 09:37:36;;;;;;;6.60;2.55;;;;;;;27.30;34.03;102695.94;5023793;28;20029;-77
2022/05/09 09:40:06;;;;;;;5.75;2.30;;;;;;;28.50;33.66;102686.84;5019652;28;20497;-76
2022/05/09 09:42:32;;;;;;;6.63;2.25;;;;;;;29.95;30.70;102671.47;5017228;28;20041;-77
2022/05/09 09:45:00;;;;;;;5.03;2.30;;;;;;;28.14;31.64;102683.03;5018025;28;20029;-77
2022/05/09 09:47:27;;;;;;;6.57;2.65;;;;;;;28.75;30.74;102681.34;5020010;28;20037;-77
2022/05/09 09:50:16;;;;;;;7.63;1.90;;;;;;;29.03;30.12;102680.78;5004179;28;20025;-77
2022/05/09 09:52:51;;;;;;;6.43;2.88;;;;;;;28.34;31.27;102669.25;5018802;28;20072;-77
2022/05/09 09:55:25;;;;;;;6.28;2.17;;;;;;;30.13;30.51;102673.25;5020946;28;20091;-77
2022/05/09 09:57:50;;;;;;;6.18;1.98;;;;;;;30.23;30.34;102678.09;5015516;28;20058;-77
2022/05/09 10:00:35;;;;;;;8.68;2.15;;;;;;;32.23;29.37;102671.72;5018296;28;20056;-77
2022/05/09 10:03:27;;;;;;;6.28;2.55;;;;;;;32.03;28.60;102674.97;5015738;28;20172;-76
2022/05/09 10:05:54;;;;;;;8.60;2.63;;;;;;;30.53;28.81;102672.50;5016915;28;20057;-76
2022/05/09 10:08:31;;;;;;;4.95;2.35;;;;;;;28.56;30.58;102669.66;5023956;28;20033;-76
2022/05/09 10:11:11;;;;;;;6.50;1.98;;;;;;;27.62;29.96;102669.66;5023122;28;20053;-77
2022/05/09 10:13:45;;;;;;;7.30;2.30;;;;;;;26.96;30.80;102665.47;5018493;28;20236;-77
2022/05/09 10:16:33;;;;;;;7.00;2.72;;;;;;;26.81;30.38;102656.78;5004892;28;20096;-77
2022/05/09 10:19:06;;;;;;;7.55;2.67;;;;;;;29.34;32.80;102638.13;5015060;28;20018;-76
2022/05/09 10:27:20;;;;;;;5.50;2.25;;;;;;;29.77;29.75;102644.34;5021374;28;20559;-76
2022/05/09 10:29:48;;;;;;;6.88;2.58;;;;;;;28.67;30.83;102639.00;5018842;28;20036;-76
2022/05/09 10:32:18;;;;;;;7.05;2.15;;;;;;;27.07;32.26;102624.13;5020625;28;20481;-75
2022/05/09 10:34:55;;;;;;;4.93;2.30;;;;;;;27.01;32.31;102630.41;5022746;28;20097;-76
2022/05/09 10:37:26;;;;;;;6.15;2.03;;;;;;;27.32;31.59;102633.38;5019279;28;20040;-76
2022/05/09 10:40:14;;;;;;;5.10;1.88;;;;;;;28.19;31.74;102628.88;5019634;28;20021;-76
2022/05/09 10:42:44;;;;;;;8.27;2.40;;;;;;;28.79;30.18;102625.50;5030725;28;20710;-76
2022/05/09 10:45:23;;;;;;;7.28;2.10;;;;;;;26.74;32.10;102610.75;5016789;28;20048;-76
2022/05/09 10:48:19;;;;;;;7.55;2.33;;;;;;;25.34;33.64;102613.63;5031560;28;20044;-76
2022/05/09 10:50:55;;;;;;;9.02;2.55;;;;;;;26.07;32.99;102615.53;5017995;28;20026;-76
2022/05/09 10:53:39;;;;;;;6.78;2.33;;;;;;;27.00;32.61;102606.22;5015507;28;20033;-77
2022/05/09 10:56:10;;;;;;;8.68;2.25;;;;;;;28.25;32.82;102606.28;4979310;28;1153449;-76
2022/05/09 10:58:51;;;;;;;5.43;2.17;;;;;;;29.55;29.99;102595.94;5020647;28;20659;-76
2022/05/09 11:01:28;;;;;;;6.35;2.25;;;;;;;30.33;31.01;102597.47;5014981;28;20389;-75
2022/05/09 11:03:56;;;;;;;7.45;2.55;;;;;;;31.27;28.22;102596.25;5018326;28;20084;-76
2022/05/09 11:06:42;;;;;;;5.32;1.90;;;;;;;29.80;29.24;102586.75;5022260;28;20037;-77
2022/05/09 11:09:26;;;;;;;7.97;2.15;;;;;;;27.61;30.43;102580.38;5024858;28;20026;-78
2022/05/09 11:12:05;;;;;;;7.50;2.42;;;;;;;29.81;30.37;102582.94;5016594;28;20080;-77
2022/05/09 11:15:02;;;;;;;5.90;2.30;;;;;;;31.85;30.64;102594.16;5019786;28;20025;-76
2022/05/09 11:17:48;;;;;;;6.43;2.05;;;;;;;31.70;27.41;102585.75;5016466;28;20565;-75
2022/05/09 11:20:37;;;;;;;5.63;2.10;;;;;;;30.63;29.29;102588.25;5019368;28;20121;-76
2022/05/09 11:23:23;;;;;;;6.13;2.28;;;;;;;32.79;27.32;102578.66;5019902;28;20030;-76
2022/05/09 11:26:04;;;;;;;4.05;1.95;;;;;;;33.05;26.87;102571.50;5020271;28;20108;-76
2022/05/09 11:28:50;;;;;;;5.03;2.17;;;;;;;31.40;27.33;102559.59;5016533;28;20060;-76
2022/05/09 11:31:27;;;;;;;15.15;3.03;;;;;;;28.58;30.83;102561.63;5022982;28;20025;-76
2022/05/09 11:34:11;;;;;;;13.80;2.50;;;;;;;28.83;30.37;102557.94;5017749;28;20060;-76
2022/05/09 11:36:44;;;;;;;9.85;2.97;;;;;;;28.07;31.40;102552.00;5023784;28;20033;-76
2022/05/09 11:39:16;;;;;;;6.90;2.67;;;;;;;28.98;31.85;102554.78;5019766;28;20061;-76
2022/05/09 11:43:27;;;;;;;5.53;2.60;;;;;;;28.54;30.32;102546.84;5011491;28;20165;-77
2022/05/09 11:45:01;;;;;;;5.43;1.88;;;;;;;30.42;31.39;102556.22;5012070;28;20045;-76
2022/05/09 11:47:48;;;;;;;5.97;2.47;;;;;;;30.21;29.10;102546.81;5022326;28;20474;-76
2022/05/09 11:50:26;;;;;;;6.15;2.13;;;;;;;30.07;29.51;102533.47;5018037;28;20072;-79